sensor_id;sensor_type;location;lat;lon;timestamp;temperature;humidity
6536;DHT22;34330;52.08032700;5.40923460;2023-02-04T00:00:32;11.80;87.50
6536;DHT22;34330;52.08032700;5.40923460;2023-02-04T00:03:05;11.80;87.60
6536;DHT22;34330;52.08032700;5.40923460;2023-02-04T00:05:33;11.70;87.50
6536;DHT22;34330;52.08032700;5.40923460;2023-02-04T00:08:03;11.70;87.70
6536;DHT22;34330;52.08032700;5.40923460;2023-02-04T00:10:31;11.80;87.60
6536;DHT22;34330;52.08032700;5.40923460;2023-02-04T00:13:00;11.70;87.90
6536;DHT22;34330;52.08032700;5.40923460;2023-02-04T00:15:28;11.70;87.80
6536;DHT22;34330;52.08032700;5.40923460;2023-02-04T00:17:56;11.70;88.00
6536;DHT22;34330;52.08032700;5.40923460;2023-02-04T00:20:24;11.70;87.70
6536;DHT22;34330;52.08032700;5.40923460;2023-02-04T00:22:52;11.70;87.80
6536;DHT22;34330;52.08032700;5.40923460;2023-02-04T00:25:21;11.70;88.00
6536;DHT22;34330;52.08032700;5.40923460;2023-02-04T00:27:50;11.70;88.00
6536;DHT22;34330;52.08032700;5.40923460;2023-02-04T00:30:18;11.70;88.10
6536;DHT22;34330;52.08032700;5.40923460;2023-02-04T00:32:47;11.70;88.10
6536;DHT22;34330;52.08032700;5.40923460;2023-02-04T00:35:16;11.70;88.10
6536;DHT22;34330;52.08032700;5.40923460;2023-02-04T00:37:43;11.70;88.20
6536;DHT22;34330;52.08032700;5.40923460;2023-02-04T00:40:12;11.60;88.00
6536;DHT22;34330;52.08032700;5.40923460;2023-02-04T00:42:41;11.60;88.10
6536;DHT22;34330;52.08032700;5.40923460;2023-02-04T00:45:12;11.60;88.10
6536;DHT22;34330;52.08032700;5.40923460;2023-02-04T00:47:40;11.60;88.30
6536;DHT22;34330;52.08032700;5.40923460;2023-02-04T00:50:08;11.60;88.30
6536;DHT22;34330;52.08032700;5.40923460;2023-02-04T00:52:36;11.60;88.60
6536;DHT22;34330;52.08032700;5.40923460;2023-02-04T00:55:05;11.50;89.20
6536;DHT22;34330;52.08032700;5.40923460;2023-02-04T00:57:33;11.50;88.60
6536;DHT22;34330;52.08032700;5.40923460;2023-02-04T01:00:05;11.50;88.40
6536;DHT22;34330;52.08032700;5.40923460;2023-02-04T01:02:34;11.50;88.30
6536;DHT22;34330;52.08032700;5.40923460;2023-02-04T01:05:02;11.50;88.70
6536;DHT22;34330;52.08032700;5.40923460;2023-02-04T01:07:32;11.40;88.60
6536;DHT22;34330;52.08032700;5.40923460;2023-02-04T01:10:00;11.40;88.70
6536;DHT22;34330;52.08032700;5.40923460;2023-02-04T01:12:28;11.40;88.80
6536;DHT22;34330;52.08032700;5.40923460;2023-02-04T01:14:56;11.40;88.80
6536;DHT22;34330;52.08032700;5.40923460;2023-02-04T01:17:25;11.60;89.30
6536;DHT22;34330;52.08032700;5.40923460;2023-02-04T01:19:53;11.30;89.10
6536;DHT22;34330;52.08032700;5.40923460;2023-02-04T01:22:21;11.20;89.10
6536;DHT22;34330;52.08032700;5.40923460;2023-02-04T01:24:49;11.20;89.30
6536;DHT22;34330;52.08032700;5.40923460;2023-02-04T01:27:17;11.20;89.40
6536;DHT22;34330;52.08032700;5.40923460;2023-02-04T01:29:45;11.20;89.40
6536;DHT22;34330;52.08032700;5.40923460;2023-02-04T01:32:13;11.10;89.50
6536;DHT22;34330;52.08032700;5.40923460;2023-02-04T01:34:42;11.10;89.60
6536;DHT22;34330;52.08032700;5.40923460;2023-02-04T01:37:10;11.10;90.00
6536;DHT22;34330;52.08032700;5.40923460;2023-02-04T01:39:38;11.10;90.10
6536;DHT22;34330;52.08032700;5.40923460;2023-02-04T01:42:06;11.10;90.10
6536;DHT22;34330;52.08032700;5.40923460;2023-02-04T01:44:34;11.00;90.20
6536;DHT22;34330;52.08032700;5.40923460;2023-02-04T01:47:02;11.00;90.30
6536;DHT22;34330;52.08032700;5.40923460;2023-02-04T01:49:30;11.00;90.30
6536;DHT22;34330;52.08032700;5.40923460;2023-02-04T01:52:00;11.00;90.40
6536;DHT22;34330;52.08032700;5.40923460;2023-02-04T01:54:29;11.00;90.50
6536;DHT22;34330;52.08032700;5.40923460;2023-02-04T01:56:57;11.00;90.50
6536;DHT22;34330;52.08032700;5.40923460;2023-02-04T01:59:26;10.90;90.40
6536;DHT22;34330;52.08032700;5.40923460;2023-02-04T02:01:54;10.90;90.60
6536;DHT22;34330;52.08032700;5.40923460;2023-02-04T02:04:28;10.90;90.60
6536;DHT22;34330;52.08032700;5.40923460;2023-02-04T02:06:59;10.90;90.80
6536;DHT22;34330;52.08032700;5.40923460;2023-02-04T02:09:29;10.90;90.80
6536;DHT22;34330;52.08032700;5.40923460;2023-02-04T02:12:00;10.90;90.90
6536;DHT22;34330;52.08032700;5.40923460;2023-02-04T02:14:29;10.90;91.00
6536;DHT22;34330;52.08032700;5.40923460;2023-02-04T02:16:57;10.90;91.00
6536;DHT22;34330;52.08032700;5.40923460;2023-02-04T02:19:30;10.90;91.00
6536;DHT22;34330;52.08032700;5.40923460;2023-02-04T02:22:04;10.80;91.10
6536;DHT22;34330;52.08032700;5.40923460;2023-02-04T02:24:34;11.30;91.40
6536;DHT22;34330;52.08032700;5.40923460;2023-02-04T02:27:05;10.90;91.20
6536;DHT22;34330;52.08032700;5.40923460;2023-02-04T02:29:34;10.90;91.30
6536;DHT22;34330;52.08032700;5.40923460;2023-02-04T02:32:03;10.90;91.30
6536;DHT22;34330;52.08032700;5.40923460;2023-02-04T02:34:32;10.80;91.20
6536;DHT22;34330;52.08032700;5.40923460;2023-02-04T02:37:01;10.90;91.30
6536;DHT22;34330;52.08032700;5.40923460;2023-02-04T02:39:33;10.90;91.30
6536;DHT22;34330;52.08032700;5.40923460;2023-02-04T02:42:04;10.80;91.30
6536;DHT22;34330;52.08032700;5.40923460;2023-02-04T02:44:32;10.90;91.40
6536;DHT22;34330;52.08032700;5.40923460;2023-02-04T02:47:00;10.80;91.40
6536;DHT22;34330;52.08032700;5.40923460;2023-02-04T02:49:31;10.80;91.40
6536;DHT22;34330;52.08032700;5.40923460;2023-02-04T02:52:00;10.80;91.40
6536;DHT22;34330;52.08032700;5.40923460;2023-02-04T02:54:30;10.80;91.30
6536;DHT22;34330;52.08032700;5.40923460;2023-02-04T02:57:01;10.80;91.40
6536;DHT22;34330;52.08032700;5.40923460;2023-02-04T02:59:29;10.90;91.40
6536;DHT22;34330;52.08032700;5.40923460;2023-02-04T03:01:59;10.80;91.30
6536;DHT22;34330;52.08032700;5.40923460;2023-02-04T03:04:30;10.80;91.40
6536;DHT22;34330;52.08032700;5.40923460;2023-02-04T03:07:01;10.70;91.40
6536;DHT22;34330;52.08032700;5.40923460;2023-02-04T03:09:29;10.70;91.30
6536;DHT22;34330;52.08032700;5.40923460;2023-02-04T03:11:57;10.70;91.30
6536;DHT22;34330;52.08032700;5.40923460;2023-02-04T03:14:26;10.70;91.20
6536;DHT22;34330;52.08032700;5.40923460;2023-02-04T03:16:54;10.60;91.30
6536;DHT22;34330;52.08032700;5.40923460;2023-02-04T03:19:23;10.60;91.30
6536;DHT22;34330;52.08032700;5.40923460;2023-02-04T03:21:52;10.70;91.40
6536;DHT22;34330;52.08032700;5.40923460;2023-02-04T03:24:21;10.60;91.40
6536;DHT22;34330;52.08032700;5.40923460;2023-02-04T03:26:49;10.60;91.50
6536;DHT22;34330;52.08032700;5.40923460;2023-02-04T03:29:17;10.60;91.50
6536;DHT22;34330;52.08032700;5.40923460;2023-02-04T03:31:46;10.60;91.60
6536;DHT22;34330;52.08032700;5.40923460;2023-02-04T03:34:14;10.50;91.60
6536;DHT22;34330;52.08032700;5.40923460;2023-02-04T03:36:42;10.50;91.70
6536;DHT22;34330;52.08032700;5.40923460;2023-02-04T03:39:11;10.50;91.60
6536;DHT22;34330;52.08032700;5.40923460;2023-02-04T03:41:39;10.50;91.70
6536;DHT22;34330;52.08032700;5.40923460;2023-02-04T03:44:07;10.50;91.70
6536;DHT22;34330;52.08032700;5.40923460;2023-02-04T03:46:35;10.60;91.70
6536;DHT22;34330;52.08032700;5.40923460;2023-02-04T03:49:04;10.50;91.70
6536;DHT22;34330;52.08032700;5.40923460;2023-02-04T03:51:32;10.50;91.70
6536;DHT22;34330;52.08032700;5.40923460;2023-02-04T03:53:59;10.50;91.70
6536;DHT22;34330;52.08032700;5.40923460;2023-02-04T03:56:27;10.50;91.70
6536;DHT22;34330;52.08032700;5.40923460;2023-02-04T03:58:55;10.40;91.70
6536;DHT22;34330;52.08032700;5.40923460;2023-02-04T04:01:23;10.40;91.70
6536;DHT22;34330;52.08032700;5.40923460;2023-02-04T04:03:51;10.40;91.70
6536;DHT22;34330;52.08032700;5.40923460;2023-02-04T04:06:20;10.50;91.70
6536;DHT22;34330;52.08032700;5.40923460;2023-02-04T04:08:48;10.40;91.70
6536;DHT22;34330;52.08032700;5.40923460;2023-02-04T04:11:17;10.40;91.70
6536;DHT22;34330;52.08032700;5.40923460;2023-02-04T04:13:45;10.40;91.70
6536;DHT22;34330;52.08032700;5.40923460;2023-02-04T04:16:13;9.50;91.80
6536;DHT22;34330;52.08032700;5.40923460;2023-02-04T04:18:41;10.40;91.70
6536;DHT22;34330;52.08032700;5.40923460;2023-02-04T04:21:09;10.40;91.70
6536;DHT22;34330;52.08032700;5.40923460;2023-02-04T04:23:38;10.40;91.70
6536;DHT22;34330;52.08032700;5.40923460;2023-02-04T04:26:06;10.40;91.60
6536;DHT22;34330;52.08032700;5.40923460;2023-02-04T04:28:34;10.40;91.50
6536;DHT22;34330;52.08032700;5.40923460;2023-02-04T04:31:02;10.50;91.60
6536;DHT22;34330;52.08032700;5.40923460;2023-02-04T04:33:30;10.30;91.50
6536;DHT22;34330;52.08032700;5.40923460;2023-02-04T04:35:58;10.30;91.50
6536;DHT22;34330;52.08032700;5.40923460;2023-02-04T04:38:26;10.30;91.50
6536;DHT22;34330;52.08032700;5.40923460;2023-02-04T04:40:55;10.30;91.40
6536;DHT22;34330;52.08032700;5.40923460;2023-02-04T04:43:23;10.30;91.40
6536;DHT22;34330;52.08032700;5.40923460;2023-02-04T04:45:51;10.40;91.40
6536;DHT22;34330;52.08032700;5.40923460;2023-02-04T04:48:19;10.20;91.30
6536;DHT22;34330;52.08032700;5.40923460;2023-02-04T04:50:47;10.20;91.30
6536;DHT22;34330;52.08032700;5.40923460;2023-02-04T04:53:15;10.20;91.30
6536;DHT22;34330;52.08032700;5.40923460;2023-02-04T04:55:43;10.20;91.30
6536;DHT22;34330;52.08032700;5.40923460;2023-02-04T04:58:13;10.10;91.30
6536;DHT22;34330;52.08032700;5.40923460;2023-02-04T05:00:41;10.10;91.30
6536;DHT22;34330;52.08032700;5.40923460;2023-02-04T05:03:09;10.10;91.30
6536;DHT22;34330;52.08032700;5.40923460;2023-02-04T05:05:37;10.20;91.40
6536;DHT22;34330;52.08032700;5.40923460;2023-02-04T05:08:06;10.10;91.50
6536;DHT22;34330;52.08032700;5.40923460;2023-02-04T05:10:36;10.10;91.60
6536;DHT22;34330;52.08032700;5.40923460;2023-02-04T05:13:04;10.10;91.60
6536;DHT22;34330;52.08032700;5.40923460;2023-02-04T05:15:33;10.10;91.60
6536;DHT22;34330;52.08032700;5.40923460;2023-02-04T05:18:01;10.10;91.70
6536;DHT22;34330;52.08032700;5.40923460;2023-02-04T05:20:30;10.10;91.80
6536;DHT22;34330;52.08032700;5.40923460;2023-02-04T05:22:58;10.20;91.90
6536;DHT22;34330;52.08032700;5.40923460;2023-02-04T05:25:29;10.10;91.80
6536;DHT22;34330;52.08032700;5.40923460;2023-02-04T05:27:58;10.10;91.80
6536;DHT22;34330;52.08032700;5.40923460;2023-02-04T05:30:25;10.10;91.90
6536;DHT22;34330;52.08032700;5.40923460;2023-02-04T05:32:55;10.10;91.90
6536;DHT22;34330;52.08032700;5.40923460;2023-02-04T05:35:23;10.10;91.90
6536;DHT22;34330;52.08032700;5.40923460;2023-02-04T05:37:51;10.10;91.90
6536;DHT22;34330;52.08032700;5.40923460;2023-02-04T05:40:19;10.10;91.90
6536;DHT22;34330;52.08032700;5.40923460;2023-02-04T05:42:47;10.10;92.00
6536;DHT22;34330;52.08032700;5.40923460;2023-02-04T05:45:15;10.10;92.00
6536;DHT22;34330;52.08032700;5.40923460;2023-02-04T05:47:47;10.10;92.00
6536;DHT22;34330;52.08032700;5.40923460;2023-02-04T05:50:16;10.10;92.00
6536;DHT22;34330;52.08032700;5.40923460;2023-02-04T05:52:47;10.10;92.00
6536;DHT22;34330;52.08032700;5.40923460;2023-02-04T05:55:15;10.10;91.90
6536;DHT22;34330;52.08032700;5.40923460;2023-02-04T05:57:42;10.20;92.00
6536;DHT22;34330;52.08032700;5.40923460;2023-02-04T06:00:12;10.20;92.00
6536;DHT22;34330;52.08032700;5.40923460;2023-02-04T06:02:40;10.20;92.10
6536;DHT22;34330;52.08032700;5.40923460;2023-02-04T06:05:08;10.30;92.10
6536;DHT22;34330;52.08032700;5.40923460;2023-02-04T06:07:37;10.20;92.00
6536;DHT22;34330;52.08032700;5.40923460;2023-02-04T06:10:05;10.20;92.00
6536;DHT22;34330;52.08032700;5.40923460;2023-02-04T06:12:33;10.30;92.10
6536;DHT22;34330;52.08032700;5.40923460;2023-02-04T06:15:01;10.20;92.00
6536;DHT22;34330;52.08032700;5.40923460;2023-02-04T06:17:29;10.20;92.00
6536;DHT22;34330;52.08032700;5.40923460;2023-02-04T06:19:57;10.20;92.00
6536;DHT22;34330;52.08032700;5.40923460;2023-02-04T06:22:25;10.20;92.00
6536;DHT22;34330;52.08032700;5.40923460;2023-02-04T06:24:54;10.40;92.10
6536;DHT22;34330;52.08032700;5.40923460;2023-02-04T06:27:22;10.20;92.00
6536;DHT22;34330;52.08032700;5.40923460;2023-02-04T06:29:51;10.20;92.00
6536;DHT22;34330;52.08032700;5.40923460;2023-02-04T06:32:20;10.20;92.40
6536;DHT22;34330;52.08032700;5.40923460;2023-02-04T06:34:49;10.20;92.10
6536;DHT22;34330;52.08032700;5.40923460;2023-02-04T06:37:17;10.20;92.10
6536;DHT22;34330;52.08032700;5.40923460;2023-02-04T06:39:45;10.20;92.10
6536;DHT22;34330;52.08032700;5.40923460;2023-02-04T06:42:14;10.10;92.00
6536;DHT22;34330;52.08032700;5.40923460;2023-02-04T06:44:42;10.10;92.00
6536;DHT22;34330;52.08032700;5.40923460;2023-02-04T06:47:10;10.10;92.10
6536;DHT22;34330;52.08032700;5.40923460;2023-02-04T06:49:38;10.10;92.20
6536;DHT22;34330;52.08032700;5.40923460;2023-02-04T06:52:05;10.10;92.20
6536;DHT22;34330;52.08032700;5.40923460;2023-02-04T06:54:33;10.10;92.20
6536;DHT22;34330;52.08032700;5.40923460;2023-02-04T06:57:01;10.10;92.30
6536;DHT22;34330;52.08032700;5.40923460;2023-02-04T06:59:34;10.10;92.40
6536;DHT22;34330;52.08032700;5.40923460;2023-02-04T07:02:04;10.10;92.40
6536;DHT22;34330;52.08032700;5.40923460;2023-02-04T07:04:33;10.10;92.40
6536;DHT22;34330;52.08032700;5.40923460;2023-02-04T07:07:01;10.10;92.40
6536;DHT22;34330;52.08032700;5.40923460;2023-02-04T07:09:29;10.20;92.40
6536;DHT22;34330;52.08032700;5.40923460;2023-02-04T07:11:57;10.10;92.50
6536;DHT22;34330;52.08032700;5.40923460;2023-02-04T07:14:25;10.10;92.50
6536;DHT22;34330;52.08032700;5.40923460;2023-02-04T07:16:54;10.10;92.50
6536;DHT22;34330;52.08032700;5.40923460;2023-02-04T07:19:24;10.10;92.60
6536;DHT22;34330;52.08032700;5.40923460;2023-02-04T07:21:52;10.10;92.50
6536;DHT22;34330;52.08032700;5.40923460;2023-02-04T07:24:23;10.10;92.50
6536;DHT22;34330;52.08032700;5.40923460;2023-02-04T07:26:51;10.10;92.50
6536;DHT22;34330;52.08032700;5.40923460;2023-02-04T07:29:19;10.50;92.70
6536;DHT22;34330;52.08032700;5.40923460;2023-02-04T07:31:51;10.10;92.50
6536;DHT22;34330;52.08032700;5.40923460;2023-02-04T07:34:21;10.10;92.50
6536;DHT22;34330;52.08032700;5.40923460;2023-02-04T07:36:49;10.10;92.50
6536;DHT22;34330;52.08032700;5.40923460;2023-02-04T07:39:17;10.10;92.50
6536;DHT22;34330;52.08032700;5.40923460;2023-02-04T07:41:45;10.20;92.60
6536;DHT22;34330;52.08032700;5.40923460;2023-02-04T07:44:13;10.10;92.50
6536;DHT22;34330;52.08032700;5.40923460;2023-02-04T07:46:41;10.20;92.50
6536;DHT22;34330;52.08032700;5.40923460;2023-02-04T07:49:09;10.20;92.50
6536;DHT22;34330;52.08032700;5.40923460;2023-02-04T07:51:38;10.20;92.60
6536;DHT22;34330;52.08032700;5.40923460;2023-02-04T07:54:06;10.30;92.70
6536;DHT22;34330;52.08032700;5.40923460;2023-02-04T07:56:34;10.30;92.70
6536;DHT22;34330;52.08032700;5.40923460;2023-02-04T07:59:02;10.30;92.70
6536;DHT22;34330;52.08032700;5.40923460;2023-02-04T08:01:30;10.30;92.70
6536;DHT22;34330;52.08032700;5.40923460;2023-02-04T08:03:58;10.30;92.70
6536;DHT22;34330;52.08032700;5.40923460;2023-02-04T08:06:26;10.60;92.90
6536;DHT22;34330;52.08032700;5.40923460;2023-02-04T08:08:56;10.30;92.80
6536;DHT22;34330;52.08032700;5.40923460;2023-02-04T08:11:23;10.40;92.90
6536;DHT22;34330;52.08032700;5.40923460;2023-02-04T08:13:52;10.40;92.80
6536;DHT22;34330;52.08032700;5.40923460;2023-02-04T08:16:21;10.40;92.90
6536;DHT22;34330;52.08032700;5.40923460;2023-02-04T08:18:50;10.40;92.90
6536;DHT22;34330;52.08032700;5.40923460;2023-02-04T08:21:18;10.40;92.70
6536;DHT22;34330;52.08032700;5.40923460;2023-02-04T08:23:46;10.50;92.90
6536;DHT22;34330;52.08032700;5.40923460;2023-02-04T08:26:15;10.50;92.90
6536;DHT22;34330;52.08032700;5.40923460;2023-02-04T08:28:43;10.50;92.90
6536;DHT22;34330;52.08032700;5.40923460;2023-02-04T08:31:11;10.50;92.90
6536;DHT22;34330;52.08032700;5.40923460;2023-02-04T08:33:39;12.10;93.60
6536;DHT22;34330;52.08032700;5.40923460;2023-02-04T08:36:07;11.00;93.10
6536;DHT22;34330;52.08032700;5.40923460;2023-02-04T08:38:35;10.60;92.90
6536;DHT22;34330;52.08032700;5.40923460;2023-02-04T08:41:04;10.60;92.90
6536;DHT22;34330;52.08032700;5.40923460;2023-02-04T08:43:33;10.70;93.00
6536;DHT22;34330;52.08032700;5.40923460;2023-02-04T08:46:02;10.70;93.00
6536;DHT22;34330;52.08032700;5.40923460;2023-02-04T08:48:30;10.70;93.00
6536;DHT22;34330;52.08032700;5.40923460;2023-02-04T08:50:58;10.70;93.00
6536;DHT22;34330;52.08032700;5.40923460;2023-02-04T08:53:26;10.90;93.10
6536;DHT22;34330;52.08032700;5.40923460;2023-02-04T08:55:54;10.80;93.10
6536;DHT22;34330;52.08032700;5.40923460;2023-02-04T08:58:22;10.90;93.20
6536;DHT22;34330;52.08032700;5.40923460;2023-02-04T09:00:51;10.80;93.10
6536;DHT22;34330;52.08032700;5.40923460;2023-02-04T09:03:20;10.90;93.20
6536;DHT22;34330;52.08032700;5.40923460;2023-02-04T09:05:48;10.90;93.20
6536;DHT22;34330;52.08032700;5.40923460;2023-02-04T09:08:16;11.20;93.40
6536;DHT22;34330;52.08032700;5.40923460;2023-02-04T09:10:44;11.00;93.30
6536;DHT22;34330;52.08032700;5.40923460;2023-02-04T09:13:12;11.00;93.20
6536;DHT22;34330;52.08032700;5.40923460;2023-02-04T09:15:40;11.10;93.20
6536;DHT22;34330;52.08032700;5.40923460;2023-02-04T09:18:09;11.10;93.20
6536;DHT22;34330;52.08032700;5.40923460;2023-02-04T09:20:43;11.10;93.10
6536;DHT22;34330;52.08032700;5.40923460;2023-02-04T09:23:11;11.20;93.10
6536;DHT22;34330;52.08032700;5.40923460;2023-02-04T09:25:41;11.20;93.00
6536;DHT22;34330;52.08032700;5.40923460;2023-02-04T09:28:10;11.20;93.10
6536;DHT22;34330;52.08032700;5.40923460;2023-02-04T09:30:41;11.20;93.10
6536;DHT22;34330;52.08032700;5.40923460;2023-02-04T09:33:14;11.30;93.10
6536;DHT22;34330;52.08032700;5.40923460;2023-02-04T09:35:43;11.30;93.20
6536;DHT22;34330;52.08032700;5.40923460;2023-02-04T09:38:11;11.40;93.20
6536;DHT22;34330;52.08032700;5.40923460;2023-02-04T09:40:42;11.40;93.20
6536;DHT22;34330;52.08032700;5.40923460;2023-02-04T09:43:13;11.40;93.20
6536;DHT22;34330;52.08032700;5.40923460;2023-02-04T09:45:47;11.50;93.10
6536;DHT22;34330;52.08032700;5.40923460;2023-02-04T09:48:17;11.50;93.00
6536;DHT22;34330;52.08032700;5.40923460;2023-02-04T09:50:46;11.50;93.10
6536;DHT22;34330;52.08032700;5.40923460;2023-02-04T09:53:17;11.60;93.00
6536;DHT22;34330;52.08032700;5.40923460;2023-02-04T09:55:47;11.60;93.00
6536;DHT22;34330;52.08032700;5.40923460;2023-02-04T09:58:18;11.70;93.00
6536;DHT22;34330;52.08032700;5.40923460;2023-02-04T10:00:51;11.70;93.30
6536;DHT22;34330;52.08032700;5.40923460;2023-02-04T10:03:21;11.80;92.90
6536;DHT22;34330;52.08032700;5.40923460;2023-02-04T10:05:50;11.80;92.70
6536;DHT22;34330;52.08032700;5.40923460;2023-02-04T10:08:21;11.90;92.50
6536;DHT22;34330;52.08032700;5.40923460;2023-02-04T10:10:52;11.90;92.30
6536;DHT22;34330;52.08032700;5.40923460;2023-02-04T10:13:26;12.00;92.20
6536;DHT22;34330;52.08032700;5.40923460;2023-02-04T10:15:57;12.00;92.30
6536;DHT22;34330;52.08032700;5.40923460;2023-02-04T10:18:29;12.10;92.30
6536;DHT22;34330;52.08032700;5.40923460;2023-02-04T10:21:10;12.10;92.20
6536;DHT22;34330;52.08032700;5.40923460;2023-02-04T10:23:39;12.20;92.00
6536;DHT22;34330;52.08032700;5.40923460;2023-02-04T10:26:09;12.20;91.70
6536;DHT22;34330;52.08032700;5.40923460;2023-02-04T10:28:38;12.30;91.50
6536;DHT22;34330;52.08032700;5.40923460;2023-02-04T10:31:26;12.30;91.40
6536;DHT22;34330;52.08032700;5.40923460;2023-02-04T10:34:05;12.40;91.50
6536;DHT22;34330;52.08032700;5.40923460;2023-02-04T10:36:33;12.50;91.40
6536;DHT22;34330;52.08032700;5.40923460;2023-02-04T10:39:01;12.50;91.40
6536;DHT22;34330;52.08032700;5.40923460;2023-02-04T10:41:30;12.50;91.10
6536;DHT22;34330;52.08032700;5.40923460;2023-02-04T10:44:06;12.60;90.90
6536;DHT22;34330;52.08032700;5.40923460;2023-02-04T10:46:36;14.00;91.40
6536;DHT22;34330;52.08032700;5.40923460;2023-02-04T10:49:18;12.70;90.80
6536;DHT22;34330;52.08032700;5.40923460;2023-02-04T10:51:48;12.70;90.80
6536;DHT22;34330;52.08032700;5.40923460;2023-02-04T10:54:16;12.70;90.80
6536;DHT22;34330;52.08032700;5.40923460;2023-02-04T10:56:59;12.80;90.70
6536;DHT22;34330;52.08032700;5.40923460;2023-02-04T10:59:31;12.80;90.60
6536;DHT22;34330;52.08032700;5.40923460;2023-02-04T11:02:00;12.90;90.50
6536;DHT22;34330;52.08032700;5.40923460;2023-02-04T11:04:30;12.90;90.40
6536;DHT22;34330;52.08032700;5.40923460;2023-02-04T11:06:58;13.00;90.50
6536;DHT22;34330;52.08032700;5.40923460;2023-02-04T11:09:26;13.00;90.50
6536;DHT22;34330;52.08032700;5.40923460;2023-02-04T11:11:57;13.10;90.60
6536;DHT22;34330;52.08032700;5.40923460;2023-02-04T11:14:27;13.10;90.30
6536;DHT22;34330;52.08032700;5.40923460;2023-02-04T11:16:56;13.20;90.10
6536;DHT22;34330;52.08032700;5.40923460;2023-02-04T11:19:37;13.20;90.20
6536;DHT22;34330;52.08032700;5.40923460;2023-02-04T11:22:20;13.30;90.20
6536;DHT22;34330;52.08032700;5.40923460;2023-02-04T11:24:50;13.30;89.50
6536;DHT22;34330;52.08032700;5.40923460;2023-02-04T11:27:21;13.40;89.00
6536;DHT22;34330;52.08032700;5.40923460;2023-02-04T11:29:50;13.40;88.60
6536;DHT22;34330;52.08032700;5.40923460;2023-02-04T11:32:32;13.40;87.00
6536;DHT22;34330;52.08032700;5.40923460;2023-02-04T11:35:23;13.50;86.40
6536;DHT22;34330;52.08032700;5.40923460;2023-02-04T11:37:51;13.50;86.60
6536;DHT22;34330;52.08032700;5.40923460;2023-02-04T11:40:28;13.50;86.90
6536;DHT22;34330;52.08032700;5.40923460;2023-02-04T11:43:01;13.50;86.50
6536;DHT22;34330;52.08032700;5.40923460;2023-02-04T11:45:33;13.50;86.40
6536;DHT22;34330;52.08032700;5.40923460;2023-02-04T11:48:09;13.50;86.80
6536;DHT22;34330;52.08032700;5.40923460;2023-02-04T11:50:41;13.50;86.90
6536;DHT22;34330;52.08032700;5.40923460;2023-02-04T11:53:11;13.50;86.60
6536;DHT22;34330;52.08032700;5.40923460;2023-02-04T11:55:44;13.60;86.80
6536;DHT22;34330;52.08032700;5.40923460;2023-02-04T11:58:15;13.60;86.30
6536;DHT22;34330;52.08032700;5.40923460;2023-02-04T12:00:44;13.60;86.70
6536;DHT22;34330;52.08032700;5.40923460;2023-02-04T12:03:24;13.70;86.00
6536;DHT22;34330;52.08032700;5.40923460;2023-02-04T12:05:54;13.70;86.20
6536;DHT22;34330;52.08032700;5.40923460;2023-02-04T12:08:29;13.70;86.30
6536;DHT22;34330;52.08032700;5.40923460;2023-02-04T12:11:04;13.80;85.90
6536;DHT22;34330;52.08032700;5.40923460;2023-02-04T12:13:33;13.90;86.20
6536;DHT22;34330;52.08032700;5.40923460;2023-02-04T12:16:12;13.90;86.00
6536;DHT22;34330;52.08032700;5.40923460;2023-02-04T12:18:40;14.00;85.90
6536;DHT22;34330;52.08032700;5.40923460;2023-02-04T12:21:10;14.00;85.70
6536;DHT22;34330;52.08032700;5.40923460;2023-02-04T12:23:37;14.10;85.10
6536;DHT22;34330;52.08032700;5.40923460;2023-02-04T12:26:05;14.10;85.20
6536;DHT22;34330;52.08032700;5.40923460;2023-02-04T12:28:34;14.10;85.00
6536;DHT22;34330;52.08032700;5.40923460;2023-02-04T12:31:02;14.20;85.00
6536;DHT22;34330;52.08032700;5.40923460;2023-02-04T12:33:30;14.20;84.60
6536;DHT22;34330;52.08032700;5.40923460;2023-02-04T12:35:58;14.30;84.30
6536;DHT22;34330;52.08032700;5.40923460;2023-02-04T12:38:27;14.30;84.10
6536;DHT22;34330;52.08032700;5.40923460;2023-02-04T12:40:55;14.30;82.90
6536;DHT22;34330;52.08032700;5.40923460;2023-02-04T12:43:23;14.30;83.00
6536;DHT22;34330;52.08032700;5.40923460;2023-02-04T12:45:54;14.30;82.60
6536;DHT22;34330;52.08032700;5.40923460;2023-02-04T12:48:22;14.30;82.70
6536;DHT22;34330;52.08032700;5.40923460;2023-02-04T12:50:51;14.30;82.60
6536;DHT22;34330;52.08032700;5.40923460;2023-02-04T12:53:19;14.30;82.70
6536;DHT22;34330;52.08032700;5.40923460;2023-02-04T12:55:49;14.30;82.70
6536;DHT22;34330;52.08032700;5.40923460;2023-02-04T12:58:17;14.30;82.20
6536;DHT22;34330;52.08032700;5.40923460;2023-02-04T13:00:45;14.30;82.50
6536;DHT22;34330;52.08032700;5.40923460;2023-02-04T13:03:13;14.30;82.10
6536;DHT22;34330;52.08032700;5.40923460;2023-02-04T13:05:41;14.30;82.10
6536;DHT22;34330;52.08032700;5.40923460;2023-02-04T13:08:10;14.30;82.30
6536;DHT22;34330;52.08032700;5.40923460;2023-02-04T13:10:38;14.30;82.90
6536;DHT22;34330;52.08032700;5.40923460;2023-02-04T13:13:07;14.30;82.90
6536;DHT22;34330;52.08032700;5.40923460;2023-02-04T13:15:35;14.30;82.60
6536;DHT22;34330;52.08032700;5.40923460;2023-02-04T13:18:03;14.40;82.40
6536;DHT22;34330;52.08032700;5.40923460;2023-02-04T13:20:31;14.40;82.20
6536;DHT22;34330;52.08032700;5.40923460;2023-02-04T13:22:59;14.40;82.20
6536;DHT22;34330;52.08032700;5.40923460;2023-02-04T13:25:27;14.40;82.20
6536;DHT22;34330;52.08032700;5.40923460;2023-02-04T13:27:55;14.50;82.60
6536;DHT22;34330;52.08032700;5.40923460;2023-02-04T13:30:24;14.40;82.30
6536;DHT22;34330;52.08032700;5.40923460;2023-02-04T13:32:52;14.50;82.20
6536;DHT22;34330;52.08032700;5.40923460;2023-02-04T13:35:20;14.50;82.50
6536;DHT22;34330;52.08032700;5.40923460;2023-02-04T13:37:48;14.50;82.00
6536;DHT22;34330;52.08032700;5.40923460;2023-02-04T13:40:16;16.20;84.00
6536;DHT22;34330;52.08032700;5.40923460;2023-02-04T13:42:47;14.50;81.60
6536;DHT22;34330;52.08032700;5.40923460;2023-02-04T13:45:15;14.50;81.50